createdAt,value
2022-12-25T00:01:24.849Z,97.47
2022-12-25T00:03:52.827Z,102.45
2022-12-25T00:06:20.246Z,94.40
2022-12-25T00:08:47.118Z,107.35
2022-12-25T00:11:19.644Z,136.25
2022-12-25T00:13:47.140Z,95.50
2022-12-25T00:16:22.220Z,95.40
2022-12-25T00:18:51.208Z,318.63
2022-12-25T00:21:19.105Z,266.95
2022-12-25T00:23:45.888Z,359.33
2022-12-25T00:26:16.265Z,156.40
2022-12-25T00:28:43.978Z,117.10
2022-12-25T00:31:16.854Z,154.48
2022-12-25T00:33:45.578Z,163.27
2022-12-25T00:36:14.967Z,230.85
2022-12-25T00:38:42.612Z,316.88
2022-12-25T00:41:38.525Z,351.75
2022-12-25T00:44:06.491Z,399.35
2022-12-25T00:46:33.419Z,435.23
2022-12-25T00:49:00.660Z,445.80
2022-12-25T00:51:27.596Z,107.20
2022-12-25T00:53:54.650Z,435.23
2022-12-25T00:56:21.426Z,205.90
2022-12-25T00:58:48.406Z,401.83
2022-12-25T01:01:15.330Z,428.85
2022-12-25T01:03:42.257Z,263.77
2022-12-25T01:06:11.185Z,468.70
2022-12-25T01:08:59.844Z,194.27
2022-12-25T01:11:27.156Z,97.57
2022-12-25T01:13:53.912Z,240.82
2022-12-25T01:16:20.821Z,199.52
2022-12-25T01:18:47.656Z,441.50
2022-12-25T01:21:16.816Z,147.27
2022-12-25T01:23:44.750Z,153.93
2022-12-25T01:26:14.181Z,71.82
2022-12-25T01:28:41.404Z,236.15
2022-12-25T01:31:13.608Z,167.55
2022-12-25T01:33:41.968Z,190.07
2022-12-25T01:36:25.799Z,141.57
2022-12-25T01:38:54.276Z,120.53
2022-12-25T01:41:23.031Z,69.43
2022-12-25T01:44:08.270Z,77.18
2022-12-25T01:46:36.084Z,85.30
2022-12-25T01:49:16.591Z,95.78
2022-12-25T01:52:10.609Z,67.05
2022-12-25T01:54:45.315Z,287.52
2022-12-25T01:57:18.785Z,134.52
2022-12-25T01:59:46.604Z,648.55
2022-12-25T02:02:13.901Z,462.77
2022-12-25T02:05:05.959Z,287.50
2022-12-25T02:07:35.608Z,394.77
2022-12-25T02:10:02.481Z,88.47
2022-12-25T02:12:32.753Z,598.72
2022-12-25T02:15:06.411Z,343.98
2022-12-25T02:18:02.909Z,285.33
2022-12-25T02:20:38.341Z,162.75
2022-12-25T02:23:32.952Z,285.08
2022-12-25T02:26:34.962Z,276.10
2022-12-25T02:29:20.248Z,506.08
2022-12-25T02:31:56.991Z,203.90
2022-12-25T02:34:45.350Z,131.23
2022-12-25T02:37:18.006Z,181.02
2022-12-25T02:39:59.320Z,64.60
2022-12-25T02:42:53.621Z,407.00
2022-12-25T02:45:50.291Z,116.57
2022-12-25T02:48:38.968Z,282.42
2022-12-25T02:51:28.494Z,283.73
2022-12-25T02:54:16.068Z,529.00
2022-12-25T02:57:04.318Z,157.82
2022-12-25T02:59:52.007Z,403.33
2022-12-25T03:02:38.179Z,247.75
2022-12-25T03:05:29.144Z,58.17
2022-12-25T03:07:58.877Z,358.33
2022-12-25T03:10:45.875Z,110.35
2022-12-25T03:13:18.965Z,137.77
2022-12-25T03:16:05.531Z,594.08
2022-12-25T03:21:18.809Z,430.20
2022-12-25T03:24:08.370Z,1067.95
2022-12-25T03:26:53.979Z,414.27
2022-12-25T03:29:43.935Z,254.67
2022-12-25T03:32:33.567Z,743.58
2022-12-25T03:35:24.342Z,142.07
2022-12-25T03:38:39.471Z,146.35
2022-12-25T03:41:43.083Z,413.23
2022-12-25T03:44:41.324Z,92.03
2022-12-25T03:47:35.612Z,149.00
2022-12-25T03:50:21.087Z,285.95
2022-12-25T03:53:07.687Z,179.32
2022-12-25T03:55:54.425Z,230.80
2022-12-25T03:58:43.560Z,231.23
2022-12-25T04:01:29.683Z,164.88
2022-12-25T04:04:15.516Z,125.53
2022-12-25T04:07:00.849Z,360.20
2022-12-25T04:09:46.445Z,263.77
2022-12-25T04:12:31.675Z,385.97
2022-12-25T04:15:16.837Z,266.45
2022-12-25T04:18:02.361Z,182.05
2022-12-25T04:20:47.810Z,230.73
2022-12-25T04:23:33.446Z,461.58
2022-12-25T04:26:18.924Z,233.23
2022-12-25T04:29:04.401Z,385.38
2022-12-25T04:31:57.578Z,263.38
2022-12-25T04:34:43.119Z,550.55
2022-12-25T04:37:10.012Z,545.37
2022-12-25T04:39:36.812Z,473.77
2022-12-25T04:42:03.866Z,128.10
2022-12-25T04:44:30.669Z,237.07
2022-12-25T04:46:57.484Z,115.90
2022-12-25T04:49:24.272Z,399.83
2022-12-25T04:51:51.065Z,259.30
2022-12-25T04:54:17.838Z,149.35
2022-12-25T04:56:45.979Z,178.20
2022-12-25T04:59:13.080Z,79.63
2022-12-25T05:01:39.965Z,55.72
2022-12-25T05:04:07.473Z,102.10
2022-12-25T05:06:34.346Z,313.05
2022-12-25T05:09:01.101Z,173.30
2022-12-25T05:11:27.923Z,314.52
2022-12-25T05:13:54.707Z,132.32
2022-12-25T05:16:21.914Z,52.63
2022-12-25T05:18:50.247Z,65.40
2022-12-25T05:21:17.830Z,162.57
2022-12-25T05:23:50.825Z,261.38
2022-12-25T05:26:23.488Z,229.77
2022-12-25T05:28:50.759Z,37.15
2022-12-25T05:31:18.744Z,42.78
2022-12-25T05:33:45.878Z,72.18
2022-12-25T05:36:13.084Z,95.47
2022-12-25T05:38:39.934Z,164.75
2022-12-25T05:41:06.781Z,195.20
2022-12-25T05:43:33.568Z,190.40
2022-12-25T05:46:09.777Z,28.88
2022-12-25T05:48:38.007Z,49.75
2022-12-25T05:51:10.235Z,37.50
2022-12-25T05:53:37.983Z,22.75
2022-12-25T05:56:07.242Z,54.45
2022-12-25T05:58:35.870Z,96.95
2022-12-25T06:01:02.624Z,31.25
2022-12-25T06:03:29.598Z,25.45
2022-12-25T06:05:56.554Z,22.05
2022-12-25T06:08:23.315Z,40.08
2022-12-25T06:10:50.065Z,46.13
2022-12-25T06:13:16.870Z,23.98
2022-12-25T06:15:43.694Z,27.33
2022-12-25T06:18:10.525Z,23.55
2022-12-25T06:20:40.995Z,21.20
2022-12-25T06:23:07.924Z,21.08
2022-12-25T06:25:34.852Z,19.83
2022-12-25T06:28:01.753Z,24.40
2022-12-25T06:30:28.603Z,26.23
2022-12-25T06:32:55.306Z,20.30
2022-12-25T06:35:22.131Z,20.77
2022-12-25T06:37:48.889Z,20.80
2022-12-25T06:40:16.800Z,26.27
2022-12-25T06:42:44.007Z,17.20
2022-12-25T06:45:11.358Z,18.55
2022-12-25T06:47:38.437Z,23.88
2022-12-25T06:50:06.370Z,20.13
2022-12-25T06:52:33.785Z,22.33
2022-12-25T06:55:00.722Z,20.73
2022-12-25T06:57:27.589Z,20.13
2022-12-25T06:59:55.476Z,19.58
2022-12-25T07:02:24.268Z,16.45
2022-12-25T07:04:52.333Z,17.50
2022-12-25T07:07:20.040Z,16.75
2022-12-25T07:09:46.773Z,19.75
2022-12-25T07:12:17.573Z,15.05
2022-12-25T07:14:45.682Z,13.77
2022-12-25T07:17:12.444Z,14.30
2022-12-25T07:19:44.625Z,14.20
2022-12-25T07:22:12.371Z,14.80
2022-12-25T07:24:39.221Z,13.43
2022-12-25T07:27:05.994Z,10.95
2022-12-25T07:29:32.993Z,11.73
2022-12-25T07:32:00.106Z,13.65
2022-12-25T07:34:27.078Z,12.88
2022-12-25T07:36:55.299Z,11.50
2022-12-25T07:39:23.802Z,12.73
2022-12-25T07:41:51.227Z,13.70
2022-12-25T07:44:18.283Z,12.93
2022-12-25T07:46:46.399Z,13.57
2022-12-25T07:49:13.224Z,17.98
2022-12-25T07:51:40.056Z,17.25
2022-12-25T07:54:07.025Z,21.08
2022-12-25T07:56:33.969Z,20.58
2022-12-25T07:59:00.877Z,15.18
2022-12-25T08:01:28.547Z,12.02
2022-12-25T08:04:01.071Z,16.00
2022-12-25T08:06:32.681Z,13.38
2022-12-25T08:09:06.144Z,14.65
2022-12-25T08:11:33.267Z,21.50
2022-12-25T08:14:00.106Z,17.02
2022-12-25T08:16:27.178Z,14.27
2022-12-25T08:18:54.072Z,13.25
2022-12-25T08:21:20.963Z,14.45
2022-12-25T08:23:48.305Z,13.70
2022-12-25T08:26:18.338Z,12.52
2022-12-25T08:28:45.287Z,14.80
2022-12-25T08:31:22.716Z,13.30
2022-12-25T08:33:50.932Z,13.73
2022-12-25T08:36:18.268Z,12.10
2022-12-25T08:38:45.115Z,12.93
2022-12-25T08:41:12.905Z,12.63
2022-12-25T08:43:40.098Z,15.70
2022-12-25T08:46:07.714Z,10.48
2022-12-25T08:48:35.070Z,11.32
2022-12-25T08:51:02.239Z,10.00
2022-12-25T08:53:29.045Z,12.63
2022-12-25T08:56:06.212Z,13.68
2022-12-25T08:58:33.598Z,13.65
2022-12-25T09:01:00.822Z,16.45
2022-12-25T09:03:27.873Z,12.38
2022-12-25T09:05:55.334Z,11.90
2022-12-25T09:08:22.426Z,11.65
2022-12-25T09:10:49.635Z,12.95
2022-12-25T09:13:16.631Z,11.43
2022-12-25T09:15:43.473Z,11.90
2022-12-25T09:18:10.378Z,11.32
2022-12-25T09:20:37.316Z,12.82
2022-12-25T09:23:08.520Z,11.75
2022-12-25T09:25:38.665Z,12.68
2022-12-25T09:28:05.412Z,14.75
2022-12-25T09:30:32.219Z,10.57
2022-12-25T09:32:59.201Z,11.40
2022-12-25T09:35:26.063Z,12.32
2022-12-25T09:37:53.126Z,13.77
2022-12-25T09:40:21.385Z,15.00
2022-12-25T09:42:49.238Z,16.80
2022-12-25T09:45:24.142Z,38.55
2022-12-25T09:47:55.261Z,31.10
2022-12-25T09:50:40.413Z,22.58
2022-12-25T09:53:19.025Z,29.33
2022-12-25T09:55:57.868Z,22.60
2022-12-25T09:58:25.362Z,20.20
2022-12-25T10:01:07.915Z,16.48
2022-12-25T10:03:53.103Z,12.82
2022-12-25T10:06:31.465Z,14.65
2022-12-25T10:09:26.085Z,14.30
2022-12-25T10:12:18.100Z,11.50
2022-12-25T10:15:07.017Z,11.15
2022-12-25T10:17:42.862Z,12.48
2022-12-25T10:20:39.256Z,11.65
2022-12-25T10:23:14.140Z,11.05
2022-12-25T10:25:41.904Z,11.13
2022-12-25T10:28:15.356Z,10.90
2022-12-25T10:30:45.559Z,10.57
2022-12-25T10:33:17.231Z,10.90
2022-12-25T10:35:45.018Z,8.93
2022-12-25T10:38:18.062Z,9.52
2022-12-25T10:41:03.097Z,10.18
2022-12-25T10:43:37.231Z,10.05
2022-12-25T10:46:12.006Z,9.00
2022-12-25T10:48:47.460Z,10.70
2022-12-25T10:51:14.565Z,13.55
2022-12-25T10:53:43.294Z,11.25
2022-12-25T10:56:20.151Z,9.00
2022-12-25T10:58:46.929Z,9.85
2022-12-25T11:01:14.190Z,9.80
2022-12-25T11:03:46.950Z,9.82
2022-12-25T11:06:27.514Z,8.98
2022-12-25T11:08:57.264Z,10.70
2022-12-25T11:11:25.419Z,16.17
2022-12-25T11:13:55.120Z,26.13
2022-12-25T11:16:40.169Z,32.38
2022-12-25T11:19:29.699Z,48.50
2022-12-25T11:21:59.228Z,28.05
2022-12-25T11:24:29.261Z,28.08
2022-12-25T11:26:59.673Z,25.45
2022-12-25T11:29:35.176Z,18.83
2022-12-25T11:32:04.095Z,18.52
2022-12-25T11:34:35.342Z,13.90
2022-12-25T11:37:03.621Z,12.35
2022-12-25T11:39:32.769Z,11.73
2022-12-25T11:42:20.699Z,10.82
2022-12-25T11:44:53.309Z,11.73
2022-12-25T11:47:42.119Z,12.35
2022-12-25T11:50:46.528Z,13.55
2022-12-25T11:53:28.594Z,14.07
2022-12-25T11:56:11.481Z,14.60
2022-12-25T11:58:40.988Z,16.42
2022-12-25T12:01:19.147Z,16.35
2022-12-25T12:03:46.165Z,15.75
2022-12-25T12:06:12.870Z,13.68
2022-12-25T12:08:40.583Z,14.32
2022-12-25T12:11:33.595Z,14.98
2022-12-25T12:14:11.962Z,14.30
2022-12-25T12:16:38.882Z,13.98
2022-12-25T12:19:34.844Z,14.30
2022-12-25T12:22:03.852Z,16.88
2022-12-25T12:24:42.894Z,13.13
2022-12-25T12:27:34.430Z,14.18
2022-12-25T12:30:01.728Z,12.30
2022-12-25T12:32:44.665Z,15.05
2022-12-25T12:35:25.705Z,19.25
2022-12-25T12:37:56.748Z,15.15
2022-12-25T12:40:34.350Z,17.00
2022-12-25T12:43:02.387Z,19.85
2022-12-25T12:45:33.236Z,18.70
2022-12-25T12:48:00.117Z,19.05
2022-12-25T12:50:42.634Z,19.48
2022-12-25T12:53:18.265Z,23.35
2022-12-25T12:55:45.201Z,20.05
2022-12-25T12:58:27.771Z,25.23
2022-12-25T13:01:25.276Z,19.05
2022-12-25T13:04:01.268Z,24.95
2022-12-25T13:11:56.906Z,28.10
2022-12-25T13:14:25.255Z,26.23
2022-12-25T13:16:53.538Z,25.85
2022-12-25T13:19:25.996Z,22.85
2022-12-25T13:22:01.871Z,26.58
2022-12-25T13:24:31.002Z,23.45
2022-12-25T13:26:59.434Z,23.13
2022-12-25T13:29:33.235Z,23.50
2022-12-25T13:32:01.689Z,24.30
2022-12-25T13:34:37.193Z,25.90
2022-12-25T13:37:16.158Z,19.40
2022-12-25T13:40:20.835Z,20.20
2022-12-25T13:42:49.213Z,20.73
2022-12-25T13:45:24.285Z,28.25
2022-12-25T13:47:55.578Z,18.87
2022-12-25T13:50:31.712Z,22.73
2022-12-25T13:53:11.968Z,20.38
2022-12-25T13:55:39.724Z,18.70
2022-12-25T13:58:07.619Z,23.73
2022-12-25T14:00:51.117Z,20.63
2022-12-25T14:03:24.810Z,25.27
2022-12-25T14:05:59.494Z,28.45
2022-12-25T14:08:28.925Z,26.10
2022-12-25T14:10:56.735Z,46.45
2022-12-25T14:13:28.352Z,38.78
2022-12-25T14:15:56.674Z,30.45
2022-12-25T14:18:24.801Z,27.38
2022-12-25T14:21:04.818Z,30.83
2022-12-25T14:23:41.419Z,23.45
2022-12-25T14:26:26.087Z,23.63
2022-12-25T14:28:57.553Z,20.15
2022-12-25T14:31:25.218Z,21.73
2022-12-25T14:33:54.168Z,23.10
2022-12-25T14:36:21.808Z,22.42
2022-12-25T14:38:59.892Z,21.92
2022-12-25T14:41:41.745Z,19.48
2022-12-25T14:44:35.029Z,19.00
2022-12-25T14:47:10.709Z,19.65
2022-12-25T14:49:38.209Z,18.58
2022-12-25T14:52:30.533Z,19.63
2022-12-25T14:55:21.585Z,19.52
2022-12-25T14:58:08.139Z,19.30
2022-12-25T15:00:39.191Z,19.02
2022-12-25T15:03:23.099Z,20.05
2022-12-25T15:06:02.130Z,20.63
2022-12-25T15:08:30.051Z,23.15
2022-12-25T15:11:00.419Z,33.13
2022-12-25T15:13:29.055Z,32.03
2022-12-25T15:16:01.279Z,34.95
2022-12-25T15:18:33.240Z,28.42
2022-12-25T15:21:00.171Z,25.75
2022-12-25T15:23:26.993Z,24.08
2022-12-25T15:25:53.873Z,24.48
2022-12-25T15:28:21.195Z,22.80
2022-12-25T15:30:49.699Z,19.30
2022-12-25T15:33:18.314Z,15.45
2022-12-25T15:35:45.672Z,16.42
2022-12-25T15:38:13.585Z,14.95
2022-12-25T15:40:40.964Z,15.70
2022-12-25T15:43:14.648Z,15.93
2022-12-25T15:45:55.993Z,16.48
2022-12-25T15:48:22.760Z,14.98
2022-12-25T15:50:49.602Z,13.80
2022-12-25T15:53:16.461Z,15.60
2022-12-25T15:55:43.252Z,15.30
2022-12-25T15:58:13.113Z,16.40
2022-12-25T16:00:39.936Z,15.30
2022-12-25T16:03:06.797Z,14.90
2022-12-25T16:05:33.713Z,15.82
2022-12-25T16:08:00.535Z,14.85
2022-12-25T16:10:28.529Z,15.65
2022-12-25T16:12:56.735Z,13.95
2022-12-25T16:15:23.537Z,16.75
2022-12-25T16:17:50.325Z,15.05
2022-12-25T16:20:17.187Z,15.68
2022-12-25T16:22:44.342Z,14.80
2022-12-25T16:25:15.089Z,14.90
2022-12-25T16:27:42.156Z,15.48
2022-12-25T16:30:11.069Z,15.95
2022-12-25T16:32:38.323Z,26.77
2022-12-25T16:35:06.011Z,17.30
2022-12-25T16:37:32.933Z,18.90
2022-12-25T16:39:59.722Z,17.38
2022-12-25T16:42:26.569Z,20.50
2022-12-25T16:44:54.244Z,19.25
2022-12-25T16:47:21.041Z,17.65
2022-12-25T16:49:47.894Z,18.63
2022-12-25T16:52:14.692Z,32.92
2022-12-25T16:54:41.435Z,23.60
2022-12-25T16:57:08.218Z,28.48
2022-12-25T16:59:35.952Z,22.70
2022-12-25T17:02:02.847Z,24.65
2022-12-25T17:04:29.834Z,15.27
2022-12-25T17:06:56.803Z,18.48
2022-12-25T17:09:23.646Z,18.23
2022-12-25T17:11:50.429Z,19.48
2022-12-25T17:14:17.232Z,19.40
2022-12-25T17:16:44.101Z,20.30
2022-12-25T17:19:20.366Z,21.15
2022-12-25T17:21:47.772Z,16.25
2022-12-25T17:24:15.219Z,18.13
2022-12-25T17:26:43.919Z,22.23
2022-12-25T17:29:13.593Z,21.73
2022-12-25T17:31:44.023Z,23.67
2022-12-25T17:34:11.592Z,27.30
2022-12-25T17:36:38.360Z,21.27
2022-12-25T17:39:06.531Z,25.63
2022-12-25T17:41:33.887Z,23.33
2022-12-25T17:44:00.761Z,26.88
2022-12-25T17:46:29.710Z,32.88
2022-12-25T17:48:58.765Z,28.08
2022-12-25T17:51:27.505Z,28.70
2022-12-25T17:53:56.937Z,27.45
2022-12-25T17:56:24.645Z,25.67
2022-12-25T17:58:54.353Z,29.80
2022-12-25T18:01:22.937Z,38.97
2022-12-25T18:03:51.053Z,31.05
2022-12-25T18:06:22.232Z,30.63
2022-12-25T18:08:49.844Z,26.33
2022-12-25T18:11:19.607Z,29.63
2022-12-25T18:13:50.007Z,25.27
2022-12-25T18:16:18.019Z,26.15
2022-12-25T18:18:51.372Z,24.73
2022-12-25T18:21:19.500Z,24.48
2022-12-25T18:23:46.479Z,22.15
2022-12-25T18:26:14.031Z,22.42
2022-12-25T18:28:42.584Z,22.92
2022-12-25T18:31:22.533Z,21.92
2022-12-25T18:33:50.433Z,23.10
2022-12-25T18:36:20.645Z,21.00
2022-12-25T18:38:48.874Z,22.60
2022-12-25T18:41:16.169Z,20.13
2022-12-25T18:43:52.320Z,23.67
2022-12-25T18:46:24.532Z,17.38
2022-12-25T18:48:52.646Z,16.13
2022-12-25T18:51:19.535Z,16.33
2022-12-25T18:53:46.440Z,17.60
2022-12-25T18:56:17.138Z,20.35
2022-12-25T18:58:44.504Z,20.25
2022-12-25T19:01:17.206Z,17.10
2022-12-25T19:03:46.070Z,20.20
2022-12-25T19:06:25.852Z,20.30
2022-12-25T19:08:53.725Z,20.58
2022-12-25T19:11:21.778Z,21.08
2022-12-25T19:13:48.948Z,21.50
2022-12-25T19:16:16.457Z,19.95
2022-12-25T19:18:43.529Z,19.55
2022-12-25T19:21:10.872Z,21.75
2022-12-25T19:23:38.593Z,21.60
2022-12-25T19:26:07.173Z,20.90
2022-12-25T19:28:34.325Z,20.85
2022-12-25T19:31:01.564Z,20.13
2022-12-25T19:33:31.159Z,19.58
2022-12-25T19:36:02.383Z,20.75
2022-12-25T19:38:29.411Z,22.38
2022-12-25T19:41:02.433Z,20.83
2022-12-25T19:43:34.657Z,22.52
2022-12-25T19:46:02.535Z,19.27
2022-12-25T19:48:30.629Z,18.73
2022-12-25T19:50:57.964Z,19.70
2022-12-25T19:53:25.762Z,19.08
2022-12-25T19:55:53.257Z,21.23
2022-12-25T19:58:21.257Z,19.52
2022-12-25T20:01:06.050Z,22.42
2022-12-25T20:03:43.665Z,19.20
2022-12-25T20:06:21.840Z,18.45
2022-12-25T20:08:54.091Z,22.15
2022-12-25T20:11:22.436Z,19.83
2022-12-25T20:13:49.348Z,15.27
2022-12-25T20:16:16.503Z,17.83
2022-12-25T20:18:43.661Z,16.20
2022-12-25T20:21:15.435Z,20.02
2022-12-25T20:23:42.971Z,17.65
2022-12-25T20:26:11.011Z,16.38
2022-12-25T20:28:38.803Z,19.02
2022-12-25T20:31:07.710Z,18.45
2022-12-25T20:33:35.004Z,16.73
2022-12-25T20:36:06.121Z,18.95
2022-12-25T20:38:33.790Z,17.30
2022-12-25T20:43:53.763Z,21.27
2022-12-25T20:46:20.711Z,22.98
2022-12-25T20:48:47.523Z,20.58
2022-12-25T20:51:20.025Z,18.08
2022-12-25T20:53:46.842Z,17.98
2022-12-25T20:56:15.653Z,21.20
2022-12-25T20:58:43.093Z,18.23
2022-12-25T21:01:17.966Z,19.77
2022-12-25T21:03:45.152Z,18.00
2022-12-25T21:06:12.786Z,18.90
2022-12-25T21:08:41.089Z,16.95
2022-12-25T21:11:09.111Z,29.58
2022-12-25T21:13:41.070Z,24.88
2022-12-25T21:16:12.095Z,22.20
2022-12-25T21:18:38.942Z,21.70
2022-12-25T21:21:07.732Z,21.08
2022-12-25T21:23:36.393Z,20.77
2022-12-25T21:26:13.817Z,20.75
2022-12-25T21:28:40.650Z,19.83
2022-12-25T21:31:08.366Z,18.80
2022-12-25T21:33:53.930Z,21.08
2022-12-25T21:36:31.908Z,22.17
2022-12-25T21:39:00.070Z,18.42
2022-12-25T21:41:28.589Z,19.85
2022-12-25T21:43:56.096Z,18.77
2022-12-25T21:46:23.449Z,20.80
2022-12-25T21:48:50.356Z,20.92
2022-12-25T21:51:38.506Z,19.15
2022-12-25T21:54:06.205Z,17.25
2022-12-25T21:56:41.368Z,20.67
2022-12-25T21:59:12.708Z,19.63
2022-12-25T22:01:39.647Z,18.65
2022-12-25T22:04:08.772Z,18.63
2022-12-25T22:06:54.341Z,21.23
2022-12-25T22:09:21.927Z,20.50
2022-12-25T22:12:07.651Z,22.33
2022-12-25T22:14:56.377Z,21.23
2022-12-25T22:17:49.043Z,22.85
2022-12-25T22:20:21.787Z,21.38
2022-12-25T22:22:49.140Z,20.83
2022-12-25T22:25:16.883Z,25.42
2022-12-25T22:27:45.392Z,18.10
2022-12-25T22:30:18.629Z,20.38
2022-12-25T22:32:46.414Z,21.17
2022-12-25T22:35:14.347Z,17.05
2022-12-25T22:37:42.341Z,15.23
2022-12-25T22:40:11.672Z,17.88
2022-12-25T22:42:38.463Z,19.00
2022-12-25T22:45:05.707Z,16.77
2022-12-25T22:47:32.560Z,19.00
2022-12-25T22:49:59.301Z,19.00
2022-12-25T22:52:26.138Z,19.23
2022-12-25T22:54:52.992Z,20.40
2022-12-25T22:57:19.992Z,21.10
2022-12-25T22:59:46.782Z,17.25
2022-12-25T23:02:13.676Z,16.27
2022-12-25T23:04:40.481Z,18.77
2022-12-25T23:07:07.347Z,17.23
2022-12-25T23:09:34.340Z,18.02
2022-12-25T23:12:01.212Z,14.45
2022-12-25T23:14:40.249Z,16.80
2022-12-25T23:17:31.507Z,14.40
2022-12-25T23:20:18.802Z,16.52
2022-12-25T23:23:04.910Z,20.02
2022-12-25T23:25:51.216Z,17.05
2022-12-25T23:28:37.907Z,16.85
2022-12-25T23:31:05.337Z,17.58
2022-12-25T23:33:32.383Z,17.65
2022-12-25T23:35:59.102Z,17.95
2022-12-25T23:38:25.905Z,14.50
2022-12-25T23:40:52.768Z,14.52
2022-12-25T23:43:19.580Z,14.88
2022-12-25T23:45:46.465Z,15.27
2022-12-25T23:48:13.319Z,14.27
2022-12-25T23:50:40.133Z,17.38
2022-12-25T23:53:06.923Z,17.88
2022-12-25T23:55:34.265Z,17.33
2022-12-25T23:58:00.999Z,16.02
